sensor_id;sensor_type;location;lat;lon;timestamp;P1;P2;P0
46240;PMS5003;31961;52.416;-0.732;2022-10-19T00:00:46;9;7;
46240;PMS5003;31961;52.416;-0.732;2022-10-19T00:03:13;4;4;
46240;PMS5003;31961;52.416;-0.732;2022-10-19T00:05:41;7;6;
46240;PMS5003;31961;52.416;-0.732;2022-10-19T00:08:08;6;6;
46240;PMS5003;31961;52.416;-0.732;2022-10-19T00:10:38;5;5;
46240;PMS5003;31961;52.416;-0.732;2022-10-19T00:13:05;10;5;
46240;PMS5003;31961;52.416;-0.732;2022-10-19T00:15:36;5;5;
46240;PMS5003;31961;52.416;-0.732;2022-10-19T00:18:05;5;5;
46240;PMS5003;31961;52.416;-0.732;2022-10-19T00:20:33;6;5;
46240;PMS5003;31961;52.416;-0.732;2022-10-19T00:23:00;10;7;
46240;PMS5003;31961;52.416;-0.732;2022-10-19T00:25:27;7;7;
46240;PMS5003;31961;52.416;-0.732;2022-10-19T00:27:55;11;10;
46240;PMS5003;31961;52.416;-0.732;2022-10-19T00:30:22;5;5;
46240;PMS5003;31961;52.416;-0.732;2022-10-19T00:32:49;9;8;
46240;PMS5003;31961;52.416;-0.732;2022-10-19T00:35:17;11;8;
46240;PMS5003;31961;52.416;-0.732;2022-10-19T00:37:44;9;7;
46240;PMS5003;31961;52.416;-0.732;2022-10-19T00:40:11;6;6;
46240;PMS5003;31961;52.416;-0.732;2022-10-19T00:42:39;9;9;
46240;PMS5003;31961;52.416;-0.732;2022-10-19T00:45:10;10;6;
46240;PMS5003;31961;52.416;-0.732;2022-10-19T00:47:39;8;7;
46240;PMS5003;31961;52.416;-0.732;2022-10-19T00:50:08;8;8;
46240;PMS5003;31961;52.416;-0.732;2022-10-19T00:52:36;10;10;
46240;PMS5003;31961;52.416;-0.732;2022-10-19T00:55:04;8;6;
46240;PMS5003;31961;52.416;-0.732;2022-10-19T00:57:34;8;8;
46240;PMS5003;31961;52.416;-0.732;2022-10-19T01:00:03;9;8;
46240;PMS5003;31961;52.416;-0.732;2022-10-19T01:02:33;9;8;
46240;PMS5003;31961;52.416;-0.732;2022-10-19T01:05:00;9;8;
46240;PMS5003;31961;52.416;-0.732;2022-10-19T01:07:28;9;7;
46240;PMS5003;31961;52.416;-0.732;2022-10-19T01:09:55;11;11;
46240;PMS5003;31961;52.416;-0.732;2022-10-19T01:12:28;10;10;
46240;PMS5003;31961;52.416;-0.732;2022-10-19T01:15:11;13;11;
46240;PMS5003;31961;52.416;-0.732;2022-10-19T01:17:49;11;11;
46240;PMS5003;31961;52.416;-0.732;2022-10-19T01:20:29;11;11;
46240;PMS5003;31961;52.416;-0.732;2022-10-19T01:23:15;11;9;
46240;PMS5003;31961;52.416;-0.732;2022-10-19T01:25:59;12;12;
46240;PMS5003;31961;52.416;-0.732;2022-10-19T01:28:40;11;9;
46240;PMS5003;31961;52.416;-0.732;2022-10-19T01:31:18;17;15;
46240;PMS5003;31961;52.416;-0.732;2022-10-19T01:33:55;11;11;
46240;PMS5003;31961;52.416;-0.732;2022-10-19T01:36:31;16;13;
46240;PMS5003;31961;52.416;-0.732;2022-10-19T01:39:08;12;11;
46240;PMS5003;31961;52.416;-0.732;2022-10-19T01:41:42;12;12;
46240;PMS5003;31961;52.416;-0.732;2022-10-19T01:44:18;10;10;
46240;PMS5003;31961;52.416;-0.732;2022-10-19T01:46:53;13;11;
46240;PMS5003;31961;52.416;-0.732;2022-10-19T01:49:24;10;10;
46240;PMS5003;31961;52.416;-0.732;2022-10-19T01:51:58;15;12;
46240;PMS5003;31961;52.416;-0.732;2022-10-19T01:54:31;14;13;
46240;PMS5003;31961;52.416;-0.732;2022-10-19T01:57:03;13;10;
46240;PMS5003;31961;52.416;-0.732;2022-10-19T01:59:33;16;13;
46240;PMS5003;31961;52.416;-0.732;2022-10-19T02:02:02;12;11;
46240;PMS5003;31961;52.416;-0.732;2022-10-19T02:04:32;16;12;
46240;PMS5003;31961;52.416;-0.732;2022-10-19T02:07:01;10;9;
46240;PMS5003;31961;52.416;-0.732;2022-10-19T02:09:30;16;10;
46240;PMS5003;31961;52.416;-0.732;2022-10-19T02:11:58;11;10;
46240;PMS5003;31961;52.416;-0.732;2022-10-19T02:14:31;15;12;
46240;PMS5003;31961;52.416;-0.732;2022-10-19T02:17:05;10;10;
46240;PMS5003;31961;52.416;-0.732;2022-10-19T02:19:35;11;10;
46240;PMS5003;31961;52.416;-0.732;2022-10-19T02:22:03;10;7;
46240;PMS5003;31961;52.416;-0.732;2022-10-19T02:24:30;15;15;
46240;PMS5003;31961;52.416;-0.732;2022-10-19T02:26:58;11;9;
46240;PMS5003;31961;52.416;-0.732;2022-10-19T02:29:26;10;9;
46240;PMS5003;31961;52.416;-0.732;2022-10-19T02:31:54;11;11;
46240;PMS5003;31961;52.416;-0.732;2022-10-19T02:34:21;10;8;
46240;PMS5003;31961;52.416;-0.732;2022-10-19T02:36:49;7;6;
46240;PMS5003;31961;52.416;-0.732;2022-10-19T02:39:16;9;8;
46240;PMS5003;31961;52.416;-0.732;2022-10-19T02:41:47;9;8;
46240;PMS5003;31961;52.416;-0.732;2022-10-19T02:44:19;9;7;
46240;PMS5003;31961;52.416;-0.732;2022-10-19T02:46:53;10;9;
46240;PMS5003;31961;52.416;-0.732;2022-10-19T02:49:26;9;8;
46240;PMS5003;31961;52.416;-0.732;2022-10-19T02:51:56;8;7;
46240;PMS5003;31961;52.416;-0.732;2022-10-19T02:54:25;8;8;
46240;PMS5003;31961;52.416;-0.732;2022-10-19T02:56:54;9;7;
46240;PMS5003;31961;52.416;-0.732;2022-10-19T02:59:21;8;8;
46240;PMS5003;31961;52.416;-0.732;2022-10-19T03:01:49;10;8;
46240;PMS5003;31961;52.416;-0.732;2022-10-19T03:04:17;10;9;
46240;PMS5003;31961;52.416;-0.732;2022-10-19T03:06:45;10;9;
46240;PMS5003;31961;52.416;-0.732;2022-10-19T03:09:12;7;7;
46240;PMS5003;31961;52.416;-0.732;2022-10-19T03:11:40;6;6;
46240;PMS5003;31961;52.416;-0.732;2022-10-19T03:14:08;11;7;
46240;PMS5003;31961;52.416;-0.732;2022-10-19T03:16:35;8;6;
46240;PMS5003;31961;52.416;-0.732;2022-10-19T03:19:02;7;7;
46240;PMS5003;31961;52.416;-0.732;2022-10-19T03:21:30;6;5;
46240;PMS5003;31961;52.416;-0.732;2022-10-19T03:23:59;9;7;
46240;PMS5003;31961;52.416;-0.732;2022-10-19T03:26:27;8;6;
46240;PMS5003;31961;52.416;-0.732;2022-10-19T03:28:54;6;6;
46240;PMS5003;31961;52.416;-0.732;2022-10-19T03:31:21;4;4;
46240;PMS5003;31961;52.416;-0.732;2022-10-19T03:33:53;6;5;
46240;PMS5003;31961;52.416;-0.732;2022-10-19T03:36:22;7;7;
46240;PMS5003;31961;52.416;-0.732;2022-10-19T03:38:51;6;4;
46240;PMS5003;31961;52.416;-0.732;2022-10-19T03:41:20;4;4;
46240;PMS5003;31961;52.416;-0.732;2022-10-19T03:43:49;6;5;
46240;PMS5003;31961;52.416;-0.732;2022-10-19T03:46:17;8;6;
46240;PMS5003;31961;52.416;-0.732;2022-10-19T03:48:44;8;6;
46240;PMS5003;31961;52.416;-0.732;2022-10-19T03:51:13;6;6;
46240;PMS5003;31961;52.416;-0.732;2022-10-19T03:53:41;7;6;
46240;PMS5003;31961;52.416;-0.732;2022-10-19T03:56:10;7;7;
46240;PMS5003;31961;52.416;-0.732;2022-10-19T03:58:38;7;6;
46240;PMS5003;31961;52.416;-0.732;2022-10-19T04:01:08;10;8;
46240;PMS5003;31961;52.416;-0.732;2022-10-19T04:03:37;6;6;
46240;PMS5003;31961;52.416;-0.732;2022-10-19T04:06:05;9;6;
46240;PMS5003;31961;52.416;-0.732;2022-10-19T04:08:34;6;6;
46240;PMS5003;31961;52.416;-0.732;2022-10-19T04:11:01;6;5;
46240;PMS5003;31961;52.416;-0.732;2022-10-19T04:13:30;7;7;
46240;PMS5003;31961;52.416;-0.732;2022-10-19T04:15:59;4;4;
46240;PMS5003;31961;52.416;-0.732;2022-10-19T04:18:26;6;6;
46240;PMS5003;31961;52.416;-0.732;2022-10-19T04:20:54;6;6;
46240;PMS5003;31961;52.416;-0.732;2022-10-19T04:23:22;6;6;
46240;PMS5003;31961;52.416;-0.732;2022-10-19T04:25:52;8;6;
46240;PMS5003;31961;52.416;-0.732;2022-10-19T04:28:25;7;7;
46240;PMS5003;31961;52.416;-0.732;2022-10-19T04:30:53;8;7;
46240;PMS5003;31961;52.416;-0.732;2022-10-19T04:33:20;8;6;
46240;PMS5003;31961;52.416;-0.732;2022-10-19T04:35:48;8;6;
46240;PMS5003;31961;52.416;-0.732;2022-10-19T04:38:15;8;6;
46240;PMS5003;31961;52.416;-0.732;2022-10-19T04:40:43;7;5;
46240;PMS5003;31961;52.416;-0.732;2022-10-19T04:43:10;8;5;
46240;PMS5003;31961;52.416;-0.732;2022-10-19T04:45:38;6;6;
46240;PMS5003;31961;52.416;-0.732;2022-10-19T04:48:06;7;6;
46240;PMS5003;31961;52.416;-0.732;2022-10-19T04:50:33;6;6;
46240;PMS5003;31961;52.416;-0.732;2022-10-19T04:53:01;5;5;
46240;PMS5003;31961;52.416;-0.732;2022-10-19T04:55:28;6;6;
46240;PMS5003;31961;52.416;-0.732;2022-10-19T04:57:56;8;7;
46240;PMS5003;31961;52.416;-0.732;2022-10-19T05:00:24;5;5;
46240;PMS5003;31961;52.416;-0.732;2022-10-19T05:02:51;7;5;
46240;PMS5003;31961;52.416;-0.732;2022-10-19T05:05:18;7;6;
46240;PMS5003;31961;52.416;-0.732;2022-10-19T05:07:47;6;6;
46240;PMS5003;31961;52.416;-0.732;2022-10-19T05:10:15;4;4;
46240;PMS5003;31961;52.416;-0.732;2022-10-19T05:12:56;5;5;
46240;PMS5003;31961;52.416;-0.732;2022-10-19T05:17:14;6;6;
46240;PMS5003;31961;52.416;-0.732;2022-10-19T05:20:09;6;6;
46240;PMS5003;31961;52.416;-0.732;2022-10-19T05:39:15;6;6;
46240;PMS5003;31961;52.416;-0.732;2022-10-19T05:41:52;5;4;
46240;PMS5003;31961;52.416;-0.732;2022-10-19T05:44:19;4;4;
46240;PMS5003;31961;52.416;-0.732;2022-10-19T05:46:48;2;2;
46240;PMS5003;31961;52.416;-0.732;2022-10-19T05:49:17;4;4;
46240;PMS5003;31961;52.416;-0.732;2022-10-19T05:51:45;5;3;
46240;PMS5003;31961;52.416;-0.732;2022-10-19T05:54:13;6;4;
46240;PMS5003;31961;52.416;-0.732;2022-10-19T05:56:41;4;4;
46240;PMS5003;31961;52.416;-0.732;2022-10-19T05:59:09;5;3;
46240;PMS5003;31961;52.416;-0.732;2022-10-19T06:01:39;5;5;
46240;PMS5003;31961;52.416;-0.732;2022-10-19T06:04:07;5;4;
46240;PMS5003;31961;52.416;-0.732;2022-10-19T06:06:34;6;4;
46240;PMS5003;31961;52.416;-0.732;2022-10-19T06:09:02;5;4;
46240;PMS5003;31961;52.416;-0.732;2022-10-19T06:11:30;7;4;
46240;PMS5003;31961;52.416;-0.732;2022-10-19T06:13:59;5;5;
46240;PMS5003;31961;52.416;-0.732;2022-10-19T06:16:28;5;5;
46240;PMS5003;31961;52.416;-0.732;2022-10-19T06:18:57;2;2;
46240;PMS5003;31961;52.416;-0.732;2022-10-19T06:21:27;6;5;
46240;PMS5003;31961;52.416;-0.732;2022-10-19T06:23:56;6;6;
46240;PMS5003;31961;52.416;-0.732;2022-10-19T06:26:24;4;4;
46240;PMS5003;31961;52.416;-0.732;2022-10-19T06:28:53;6;5;
46240;PMS5003;31961;52.416;-0.732;2022-10-19T06:31:21;4;4;
46240;PMS5003;31961;52.416;-0.732;2022-10-19T06:33:49;6;5;
46240;PMS5003;31961;52.416;-0.732;2022-10-19T06:36:18;3;3;
46240;PMS5003;31961;52.416;-0.732;2022-10-19T06:38:46;5;5;
46240;PMS5003;31961;52.416;-0.732;2022-10-19T06:41:14;2;2;
46240;PMS5003;31961;52.416;-0.732;2022-10-19T06:43:42;5;4;
46240;PMS5003;31961;52.416;-0.732;2022-10-19T06:46:10;5;5;
46240;PMS5003;31961;52.416;-0.732;2022-10-19T06:48:39;5;5;
46240;PMS5003;31961;52.416;-0.732;2022-10-19T06:51:06;3;3;
46240;PMS5003;31961;52.416;-0.732;2022-10-19T06:53:34;5;4;
46240;PMS5003;31961;52.416;-0.732;2022-10-19T06:56:03;4;4;
46240;PMS5003;31961;52.416;-0.732;2022-10-19T06:58:33;6;4;
46240;PMS5003;31961;52.416;-0.732;2022-10-19T07:01:01;5;4;
46240;PMS5003;31961;52.416;-0.732;2022-10-19T07:03:29;6;4;
46240;PMS5003;31961;52.416;-0.732;2022-10-19T07:05:57;6;5;
46240;PMS5003;31961;52.416;-0.732;2022-10-19T07:08:25;4;4;
46240;PMS5003;31961;52.416;-0.732;2022-10-19T07:10:54;4;4;
46240;PMS5003;31961;52.416;-0.732;2022-10-19T07:13:22;5;4;
46240;PMS5003;31961;52.416;-0.732;2022-10-19T07:15:55;4;3;
46240;PMS5003;31961;52.416;-0.732;2022-10-19T07:18:22;4;4;
46240;PMS5003;31961;52.416;-0.732;2022-10-19T07:20:54;5;5;
46240;PMS5003;31961;52.416;-0.732;2022-10-19T07:23:22;3;3;
46240;PMS5003;31961;52.416;-0.732;2022-10-19T07:25:49;5;4;
46240;PMS5003;31961;52.416;-0.732;2022-10-19T07:28:17;6;3;
46240;PMS5003;31961;52.416;-0.732;2022-10-19T07:30:45;3;2;
46240;PMS5003;31961;52.416;-0.732;2022-10-19T07:33:12;2;2;
46240;PMS5003;31961;52.416;-0.732;2022-10-19T07:35:40;3;3;
46240;PMS5003;31961;52.416;-0.732;2022-10-19T07:38:07;7;5;
46240;PMS5003;31961;52.416;-0.732;2022-10-19T07:40:35;5;4;
46240;PMS5003;31961;52.416;-0.732;2022-10-19T07:43:03;6;3;
46240;PMS5003;31961;52.416;-0.732;2022-10-19T07:45:31;5;4;
46240;PMS5003;31961;52.416;-0.732;2022-10-19T07:47:58;5;5;
46240;PMS5003;31961;52.416;-0.732;2022-10-19T07:50:26;5;5;
46240;PMS5003;31961;52.416;-0.732;2022-10-19T07:52:54;4;3;
46240;PMS5003;31961;52.416;-0.732;2022-10-19T07:55:21;3;3;
46240;PMS5003;31961;52.416;-0.732;2022-10-19T07:57:49;5;4;
46240;PMS5003;31961;52.416;-0.732;2022-10-19T08:00:16;6;4;
46240;PMS5003;31961;52.416;-0.732;2022-10-19T08:02:44;2;2;
46240;PMS5003;31961;52.416;-0.732;2022-10-19T08:05:11;4;4;
46240;PMS5003;31961;52.416;-0.732;2022-10-19T08:07:39;4;3;
46240;PMS5003;31961;52.416;-0.732;2022-10-19T08:10:07;5;5;
46240;PMS5003;31961;52.416;-0.732;2022-10-19T08:12:35;3;3;
46240;PMS5003;31961;52.416;-0.732;2022-10-19T08:15:02;5;4;
46240;PMS5003;31961;52.416;-0.732;2022-10-19T08:17:30;4;3;
46240;PMS5003;31961;52.416;-0.732;2022-10-19T08:19:57;5;5;
46240;PMS5003;31961;52.416;-0.732;2022-10-19T08:22:25;7;5;
46240;PMS5003;31961;52.416;-0.732;2022-10-19T08:24:52;2;2;
46240;PMS5003;31961;52.416;-0.732;2022-10-19T08:27:20;4;3;
46240;PMS5003;31961;52.416;-0.732;2022-10-19T08:29:48;2;2;
46240;PMS5003;31961;52.416;-0.732;2022-10-19T08:32:15;4;4;
46240;PMS5003;31961;52.416;-0.732;2022-10-19T08:34:43;3;2;
46240;PMS5003;31961;52.416;-0.732;2022-10-19T08:37:10;5;5;
46240;PMS5003;31961;52.416;-0.732;2022-10-19T08:39:38;5;5;
46240;PMS5003;31961;52.416;-0.732;2022-10-19T08:42:07;4;4;
46240;PMS5003;31961;52.416;-0.732;2022-10-19T08:45:18;3;3;
46240;PMS5003;31961;52.416;-0.732;2022-10-19T08:47:54;3;3;
46240;PMS5003;31961;52.416;-0.732;2022-10-19T08:50:29;4;3;
46240;PMS5003;31961;52.416;-0.732;2022-10-19T08:53:02;1;1;
46240;PMS5003;31961;52.416;-0.732;2022-10-19T08:55:35;7;5;
46240;PMS5003;31961;52.416;-0.732;2022-10-19T08:58:17;2;2;
46240;PMS5003;31961;52.416;-0.732;2022-10-19T09:00:54;4;4;
46240;PMS5003;31961;52.416;-0.732;2022-10-19T09:03:30;5;5;
46240;PMS5003;31961;52.416;-0.732;2022-10-19T09:06:06;6;5;
46240;PMS5003;31961;52.416;-0.732;2022-10-19T09:08:39;4;4;
46240;PMS5003;31961;52.416;-0.732;2022-10-19T09:11:07;5;4;
46240;PMS5003;31961;52.416;-0.732;2022-10-19T09:13:38;4;4;
46240;PMS5003;31961;52.416;-0.732;2022-10-19T09:16:10;6;5;
46240;PMS5003;31961;52.416;-0.732;2022-10-19T09:18:39;7;3;
46240;PMS5003;31961;52.416;-0.732;2022-10-19T09:21:09;3;3;
46240;PMS5003;31961;52.416;-0.732;2022-10-19T09:23:41;3;3;
46240;PMS5003;31961;52.416;-0.732;2022-10-19T09:26:17;3;3;
46240;PMS5003;31961;52.416;-0.732;2022-10-19T09:28:48;2;2;
46240;PMS5003;31961;52.416;-0.732;2022-10-19T09:31:21;6;4;
46240;PMS5003;31961;52.416;-0.732;2022-10-19T09:33:54;7;5;
46240;PMS5003;31961;52.416;-0.732;2022-10-19T09:36:28;5;4;
46240;PMS5003;31961;52.416;-0.732;2022-10-19T09:39:02;3;3;
46240;PMS5003;31961;52.416;-0.732;2022-10-19T09:41:29;3;3;
46240;PMS5003;31961;52.416;-0.732;2022-10-19T09:43:57;4;4;
46240;PMS5003;31961;52.416;-0.732;2022-10-19T09:46:27;4;4;
46240;PMS5003;31961;52.416;-0.732;2022-10-19T09:49:00;4;4;
46240;PMS5003;31961;52.416;-0.732;2022-10-19T09:51:38;8;6;
46240;PMS5003;31961;52.416;-0.732;2022-10-19T09:54:21;4;4;
46240;PMS5003;31961;52.416;-0.732;2022-10-19T09:56:52;6;5;
46240;PMS5003;31961;52.416;-0.732;2022-10-19T09:59:22;4;4;
46240;PMS5003;31961;52.416;-0.732;2022-10-19T10:02:02;5;5;
46240;PMS5003;31961;52.416;-0.732;2022-10-19T10:04:37;6;4;
46240;PMS5003;31961;52.416;-0.732;2022-10-19T10:07:04;7;5;
46240;PMS5003;31961;52.416;-0.732;2022-10-19T10:09:33;6;5;
46240;PMS5003;31961;52.416;-0.732;2022-10-19T10:12:06;7;5;
46240;PMS5003;31961;52.416;-0.732;2022-10-19T10:14:34;3;2;
46240;PMS5003;31961;52.416;-0.732;2022-10-19T10:17:04;7;3;
46240;PMS5003;31961;52.416;-0.732;2022-10-19T10:19:38;4;4;
46240;PMS5003;31961;52.416;-0.732;2022-10-19T10:22:23;5;3;
46240;PMS5003;31961;52.416;-0.732;2022-10-19T10:24:52;3;3;
46240;PMS5003;31961;52.416;-0.732;2022-10-19T10:27:27;5;5;
46240;PMS5003;31961;52.416;-0.732;2022-10-19T10:29:56;5;2;
46240;PMS5003;31961;52.416;-0.732;2022-10-19T10:32:24;4;4;
46240;PMS5003;31961;52.416;-0.732;2022-10-19T10:34:55;3;3;
46240;PMS5003;31961;52.416;-0.732;2022-10-19T10:37:28;4;3;
46240;PMS5003;31961;52.416;-0.732;2022-10-19T10:40:02;3;3;
46240;PMS5003;31961;52.416;-0.732;2022-10-19T10:42:33;3;3;
46240;PMS5003;31961;52.416;-0.732;2022-10-19T10:45:14;2;2;
46240;PMS5003;31961;52.416;-0.732;2022-10-19T10:47:43;5;3;
46240;PMS5003;31961;52.416;-0.732;2022-10-19T10:50:14;4;4;
46240;PMS5003;31961;52.416;-0.732;2022-10-19T10:53:32;5;3;
46240;PMS5003;31961;52.416;-0.732;2022-10-19T10:56:02;6;3;
46240;PMS5003;31961;52.416;-0.732;2022-10-19T10:58:34;2;2;
46240;PMS5003;31961;52.416;-0.732;2022-10-19T11:01:10;3;3;
46240;PMS5003;31961;52.416;-0.732;2022-10-19T11:03:45;1;1;
46240;PMS5003;31961;52.416;-0.732;2022-10-19T11:06:18;4;4;
46240;PMS5003;31961;52.416;-0.732;2022-10-19T11:08:51;4;4;
46240;PMS5003;31961;52.416;-0.732;2022-10-19T11:11:26;5;4;
46240;PMS5003;31961;52.416;-0.732;2022-10-19T11:14:00;2;2;
46240;PMS5003;31961;52.416;-0.732;2022-10-19T11:16:47;4;3;
46240;PMS5003;31961;52.416;-0.732;2022-10-19T11:19:19;2;2;
46240;PMS5003;31961;52.416;-0.732;2022-10-19T11:21:56;3;3;
46240;PMS5003;31961;52.416;-0.732;2022-10-19T11:24:36;5;3;
46240;PMS5003;31961;52.416;-0.732;2022-10-19T11:27:15;1;1;
46240;PMS5003;31961;52.416;-0.732;2022-10-19T11:29:55;6;6;
46240;PMS5003;31961;52.416;-0.732;2022-10-19T11:32:34;4;4;
46240;PMS5003;31961;52.416;-0.732;2022-10-19T11:35:18;3;2;
46240;PMS5003;31961;52.416;-0.732;2022-10-19T11:37:58;2;2;
46240;PMS5003;31961;52.416;-0.732;2022-10-19T11:40:37;2;2;
46240;PMS5003;31961;52.416;-0.732;2022-10-19T11:43:09;5;2;
46240;PMS5003;31961;52.416;-0.732;2022-10-19T11:45:47;2;2;
46240;PMS5003;31961;52.416;-0.732;2022-10-19T11:48:27;5;3;
46240;PMS5003;31961;52.416;-0.732;2022-10-19T11:51:08;2;2;
46240;PMS5003;31961;52.416;-0.732;2022-10-19T11:53:45;2;2;
46240;PMS5003;31961;52.416;-0.732;2022-10-19T11:56:21;2;2;
46240;PMS5003;31961;52.416;-0.732;2022-10-19T11:58:57;2;2;
46240;PMS5003;31961;52.416;-0.732;2022-10-19T12:01:38;0;0;
46240;PMS5003;31961;52.416;-0.732;2022-10-19T12:04:18;1;1;
46240;PMS5003;31961;52.416;-0.732;2022-10-19T12:06:57;0;0;
46240;PMS5003;31961;52.416;-0.732;2022-10-19T12:09:34;3;2;
46240;PMS5003;31961;52.416;-0.732;2022-10-19T12:12:14;2;2;
46240;PMS5003;31961;52.416;-0.732;2022-10-19T12:14:50;3;3;
46240;PMS5003;31961;52.416;-0.732;2022-10-19T12:17:23;0;0;
46240;PMS5003;31961;52.416;-0.732;2022-10-19T12:19:54;3;1;
46240;PMS5003;31961;52.416;-0.732;2022-10-19T12:22:26;4;2;
46240;PMS5003;31961;52.416;-0.732;2022-10-19T12:24:56;2;1;
46240;PMS5003;31961;52.416;-0.732;2022-10-19T12:27:28;2;2;
46240;PMS5003;31961;52.416;-0.732;2022-10-19T12:29:57;2;2;
46240;PMS5003;31961;52.416;-0.732;2022-10-19T12:32:31;5;4;
46240;PMS5003;31961;52.416;-0.732;2022-10-19T12:35:08;1;1;
46240;PMS5003;31961;52.416;-0.732;2022-10-19T12:37:48;2;2;
46240;PMS5003;31961;52.416;-0.732;2022-10-19T12:40:22;3;2;
46240;PMS5003;31961;52.416;-0.732;2022-10-19T12:42:58;2;2;
46240;PMS5003;31961;52.416;-0.732;2022-10-19T12:45:34;2;1;
46240;PMS5003;31961;52.416;-0.732;2022-10-19T12:48:21;4;3;
46240;PMS5003;31961;52.416;-0.732;2022-10-19T12:50:57;0;0;
46240;PMS5003;31961;52.416;-0.732;2022-10-19T12:53:28;3;1;
46240;PMS5003;31961;52.416;-0.732;2022-10-19T12:55:58;3;2;
46240;PMS5003;31961;52.416;-0.732;2022-10-19T12:58:29;2;2;
46240;PMS5003;31961;52.416;-0.732;2022-10-19T13:01:02;4;3;
46240;PMS5003;31961;52.416;-0.732;2022-10-19T13:03:32;3;3;
46240;PMS5003;31961;52.416;-0.732;2022-10-19T13:06:01;2;2;
46240;PMS5003;31961;52.416;-0.732;2022-10-19T13:08:37;2;2;
46240;PMS5003;31961;52.416;-0.732;2022-10-19T13:11:09;3;3;
46240;PMS5003;31961;52.416;-0.732;2022-10-19T13:13:56;1;1;
46240;PMS5003;31961;52.416;-0.732;2022-10-19T13:16:38;3;2;
46240;PMS5003;31961;52.416;-0.732;2022-10-19T13:19:21;2;1;
46240;PMS5003;31961;52.416;-0.732;2022-10-19T13:21:53;2;2;
46240;PMS5003;31961;52.416;-0.732;2022-10-19T13:24:30;1;1;
46240;PMS5003;31961;52.416;-0.732;2022-10-19T13:29:23;1;1;
46240;PMS5003;31961;52.416;-0.732;2022-10-19T13:31:51;2;2;
46240;PMS5003;31961;52.416;-0.732;2022-10-19T13:34:18;2;2;
46240;PMS5003;31961;52.416;-0.732;2022-10-19T13:36:57;1;0;
46240;PMS5003;31961;52.416;-0.732;2022-10-19T13:39:26;2;2;
46240;PMS5003;31961;52.416;-0.732;2022-10-19T13:41:54;1;1;
46240;PMS5003;31961;52.416;-0.732;2022-10-19T13:44:23;4;3;
46240;PMS5003;31961;52.416;-0.732;2022-10-19T13:46:54;2;0;
46240;PMS5003;31961;52.416;-0.732;2022-10-19T13:49:40;3;2;
46240;PMS5003;31961;52.416;-0.732;2022-10-19T13:52:55;2;2;
46240;PMS5003;31961;52.416;-0.732;2022-10-19T13:55:42;1;1;
46240;PMS5003;31961;52.416;-0.732;2022-10-19T13:58:57;2;2;
46240;PMS5003;31961;52.416;-0.732;2022-10-19T14:01:40;3;2;
46240;PMS5003;31961;52.416;-0.732;2022-10-19T14:04:18;2;2;
46240;PMS5003;31961;52.416;-0.732;2022-10-19T14:06:54;2;1;
46240;PMS5003;31961;52.416;-0.732;2022-10-19T14:09:33;2;1;
46240;PMS5003;31961;52.416;-0.732;2022-10-19T14:12:16;3;1;
46240;PMS5003;31961;52.416;-0.732;2022-10-19T14:14:48;3;1;
46240;PMS5003;31961;52.416;-0.732;2022-10-19T14:17:17;0;0;
46240;PMS5003;31961;52.416;-0.732;2022-10-19T14:19:46;1;1;
46240;PMS5003;31961;52.416;-0.732;2022-10-19T14:22:17;1;1;
46240;PMS5003;31961;52.416;-0.732;2022-10-19T14:24:47;0;0;
46240;PMS5003;31961;52.416;-0.732;2022-10-19T14:27:15;1;1;
46240;PMS5003;31961;52.416;-0.732;2022-10-19T14:29:47;2;1;
46240;PMS5003;31961;52.416;-0.732;2022-10-19T14:32:15;1;1;
46240;PMS5003;31961;52.416;-0.732;2022-10-19T14:34:44;4;3;
46240;PMS5003;31961;52.416;-0.732;2022-10-19T14:37:14;7;2;
46240;PMS5003;31961;52.416;-0.732;2022-10-19T14:39:56;4;3;
46240;PMS5003;31961;52.416;-0.732;2022-10-19T14:42:33;3;2;
46240;PMS5003;31961;52.416;-0.732;2022-10-19T14:45:05;3;2;
46240;PMS5003;31961;52.416;-0.732;2022-10-19T14:47:49;1;1;
46240;PMS5003;31961;52.416;-0.732;2022-10-19T14:50:20;0;0;
46240;PMS5003;31961;52.416;-0.732;2022-10-19T14:52:53;0;0;
46240;PMS5003;31961;52.416;-0.732;2022-10-19T14:55:24;1;1;
46240;PMS5003;31961;52.416;-0.732;2022-10-19T14:57:57;1;1;
46240;PMS5003;31961;52.416;-0.732;2022-10-19T15:00:24;1;1;
46240;PMS5003;31961;52.416;-0.732;2022-10-19T15:02:55;1;1;
46240;PMS5003;31961;52.416;-0.732;2022-10-19T15:05:25;1;1;
46240;PMS5003;31961;52.416;-0.732;2022-10-19T15:07:56;4;2;
46240;PMS5003;31961;52.416;-0.732;2022-10-19T15:10:36;2;2;
46240;PMS5003;31961;52.416;-0.732;2022-10-19T15:13:12;2;1;
46240;PMS5003;31961;52.416;-0.732;2022-10-19T15:15:48;0;0;
46240;PMS5003;31961;52.416;-0.732;2022-10-19T15:18:18;4;3;
46240;PMS5003;31961;52.416;-0.732;2022-10-19T15:20:59;2;2;
46240;PMS5003;31961;52.416;-0.732;2022-10-19T15:23:31;2;2;
46240;PMS5003;31961;52.416;-0.732;2022-10-19T15:26:02;1;1;
46240;PMS5003;31961;52.416;-0.732;2022-10-19T15:28:41;3;1;
46240;PMS5003;31961;52.416;-0.732;2022-10-19T15:31:12;0;0;
46240;PMS5003;31961;52.416;-0.732;2022-10-19T15:33:43;2;2;
46240;PMS5003;31961;52.416;-0.732;2022-10-19T15:36:14;1;1;
46240;PMS5003;31961;52.416;-0.732;2022-10-19T15:38:42;3;2;
46240;PMS5003;31961;52.416;-0.732;2022-10-19T15:41:14;2;2;
46240;PMS5003;31961;52.416;-0.732;2022-10-19T15:43:50;2;2;
46240;PMS5003;31961;52.416;-0.732;2022-10-19T15:46:20;2;2;
46240;PMS5003;31961;52.416;-0.732;2022-10-19T15:48:50;2;2;
46240;PMS5003;31961;52.416;-0.732;2022-10-19T15:51:30;0;0;
46240;PMS5003;31961;52.416;-0.732;2022-10-19T15:54:00;3;3;
46240;PMS5003;31961;52.416;-0.732;2022-10-19T15:56:30;2;2;
46240;PMS5003;31961;52.416;-0.732;2022-10-19T15:58:58;3;3;
46240;PMS5003;31961;52.416;-0.732;2022-10-19T16:01:28;2;1;
46240;PMS5003;31961;52.416;-0.732;2022-10-19T16:03:57;2;1;
46240;PMS5003;31961;52.416;-0.732;2022-10-19T16:06:27;3;3;
46240;PMS5003;31961;52.416;-0.732;2022-10-19T16:08:57;2;2;
46240;PMS5003;31961;52.416;-0.732;2022-10-19T16:11:26;3;2;
46240;PMS5003;31961;52.416;-0.732;2022-10-19T16:13:55;2;1;
46240;PMS5003;31961;52.416;-0.732;2022-10-19T16:16:23;2;2;
46240;PMS5003;31961;52.416;-0.732;2022-10-19T16:18:52;3;3;
46240;PMS5003;31961;52.416;-0.732;2022-10-19T16:21:22;3;2;
46240;PMS5003;31961;52.416;-0.732;2022-10-19T16:23:51;2;2;
46240;PMS5003;31961;52.416;-0.732;2022-10-19T16:26:19;5;2;
46240;PMS5003;31961;52.416;-0.732;2022-10-19T16:28:47;3;0;
46240;PMS5003;31961;52.416;-0.732;2022-10-19T16:31:15;3;3;
46240;PMS5003;31961;52.416;-0.732;2022-10-19T16:33:43;1;1;
46240;PMS5003;31961;52.416;-0.732;2022-10-19T16:36:11;1;1;
46240;PMS5003;31961;52.416;-0.732;2022-10-19T16:38:38;3;1;
46240;PMS5003;31961;52.416;-0.732;2022-10-19T16:41:06;5;2;
46240;PMS5003;31961;52.416;-0.732;2022-10-19T17:00:33;4;2;
46240;PMS5003;31961;52.416;-0.732;2022-10-19T17:03:01;3;2;
46240;PMS5003;31961;52.416;-0.732;2022-10-19T17:05:29;3;2;
46240;PMS5003;31961;52.416;-0.732;2022-10-19T17:07:56;2;1;
46240;PMS5003;31961;52.416;-0.732;2022-10-19T17:10:24;2;1;
46240;PMS5003;31961;52.416;-0.732;2022-10-19T17:12:52;3;2;
46240;PMS5003;31961;52.416;-0.732;2022-10-19T17:15:18;2;2;
46240;PMS5003;31961;52.416;-0.732;2022-10-19T17:17:45;7;3;
46240;PMS5003;31961;52.416;-0.732;2022-10-19T17:20:12;4;3;
46240;PMS5003;31961;52.416;-0.732;2022-10-19T17:22:39;3;3;
46240;PMS5003;31961;52.416;-0.732;2022-10-19T17:25:07;3;2;
46240;PMS5003;31961;52.416;-0.732;2022-10-19T17:27:35;2;2;
46240;PMS5003;31961;52.416;-0.732;2022-10-19T17:30:02;3;3;
46240;PMS5003;31961;52.416;-0.732;2022-10-19T17:32:30;5;4;
46240;PMS5003;31961;52.416;-0.732;2022-10-19T17:34:57;2;2;
46240;PMS5003;31961;52.416;-0.732;2022-10-19T17:37:24;4;3;